Terminal Aerodrome Forecast
Issued by NWS

Home | Current Version | Previous Version | Text Only | Print | Product List | Glossary On
Versions: 1 2 3 4 5 6 7 8 9 10 11 12 13
000
FTUS46 KSEW 060520
TAFCLM
TAF
KCLM 060520Z 0606/0706 28020G28KT P6SM VCSH SCT020 BKN040
      TEMPO 0606/0609 -SHRA BKN020
     FM061000 28012G20KT P6SM SCT050 BKN100
     FM061500 26010KT P6SM SCT050 BKN100
     FM061900 VRB04KT P6SM SCT050 BKN100=

USA.gov is the U.S. government's official web portal to all federal, state and local government web resources and services.